Time;durP1;ratioP1;P1;durP2;ratioP2;P2;SDS_P1;SDS_P2;PMS_P1;PMS_P2;Temp;Humidity;BMP_temperature;BMP_pressure;BME280_temperature;BME280_humidity;BME280_pressure;Samples;Min_cycle;Max_cycle;Signal;HPM_P1;HPM_P2
2021/04/25 00:01:07;;;;;;;10.00;4.45;;;;;;;9.28;44.74;96860.06;4997444;28;20504;-62
2021/04/25 00:03:32;;;;;;;9.65;4.15;;;;;;;9.14;45.34;96863.25;4993564;28;20397;-62
2021/04/25 00:05:57;;;;;;;10.35;5.28;;;;;;;9.18;43.99;96860.59;5000803;28;20045;-63
2021/04/25 00:08:23;;;;;;;8.10;3.85;;;;;;;9.09;43.20;96860.81;4995751;28;20960;-63
2021/04/25 00:10:48;;;;;;;14.07;5.40;;;;;;;9.04;44.97;96866.53;4999412;28;20456;-62
2021/04/25 00:13:14;;;;;;;12.20;5.25;;;;;;;8.96;44.55;96865.53;4995635;28;20413;-63
2021/04/25 00:15:39;;;;;;;16.95;4.93;;;;;;;8.45;47.47;96862.66;5001854;28;20130;-63
2021/04/25 00:18:05;;;;;;;13.57;5.13;;;;;;;8.43;46.39;96864.94;4994385;28;20045;-62
2021/04/25 00:20:30;;;;;;;9.10;5.22;;;;;;;8.84;47.61;96870.28;4999134;28;20456;-62
2021/04/25 00:22:56;;;;;;;13.02;5.15;;;;;;;8.97;48.39;96863.63;5001198;28;20038;-63
2021/04/25 00:25:21;;;;;;;11.88;5.38;;;;;;;8.88;48.79;96860.25;4995607;28;20056;-63
2021/04/25 00:27:48;;;;;;;9.45;4.50;;;;;;;8.60;48.94;96853.69;5001013;28;20069;-63
2021/04/25 00:30:17;;;;;;;13.15;5.15;;;;;;;8.55;49.61;96867.63;4996820;28;20092;-63
2021/04/25 00:32:44;;;;;;;14.48;5.07;;;;;;;8.23;50.30;96859.31;5001385;28;20104;-63
2021/04/25 00:35:10;;;;;;;12.82;4.38;;;;;;;8.24;50.82;96862.81;5011794;28;20121;-62
2021/04/25 00:37:36;;;;;;;11.48;4.60;;;;;;;8.29;50.93;96856.31;5004825;28;20519;-63
2021/04/25 00:40:05;;;;;;;8.68;4.75;;;;;;;8.37;51.61;96858.91;5000550;28;20130;-61
2021/04/25 00:42:30;;;;;;;11.82;4.85;;;;;;;8.53;52.06;96860.91;5000439;28;20073;-63
2021/04/25 00:44:55;;;;;;;9.40;4.57;;;;;;;8.37;50.65;96863.56;5001459;28;20068;-62
2021/04/25 00:47:21;;;;;;;9.13;4.70;;;;;;;7.85;52.31;96868.75;4995974;28;20641;-64
2021/04/25 00:49:46;;;;;;;9.38;4.40;;;;;;;7.87;52.76;96867.59;4984000;28;20049;-63
2021/04/25 00:52:12;;;;;;;14.90;5.35;;;;;;;7.80;52.48;96871.69;4995666;28;20099;-63
2021/04/25 00:54:40;;;;;;;10.13;4.22;;;;;;;7.87;52.51;96865.69;4999087;28;20485;-64
2021/04/25 00:57:07;;;;;;;13.73;5.40;;;;;;;7.94;52.65;96870.53;4988568;28;20072;-63
2021/04/25 00:59:32;;;;;;;10.73;5.15;;;;;;;7.84;53.72;96880.00;5000900;28;20496;-64
2021/04/25 01:01:58;;;;;;;12.48;4.82;;;;;;;7.55;55.13;96870.16;4995614;28;20058;-64
2021/04/25 01:04:23;;;;;;;13.32;5.10;;;;;;;7.50;54.54;96879.34;4992097;28;20682;-58
2021/04/25 01:06:49;;;;;;;11.25;5.40;;;;;;;7.55;54.55;96884.56;5001786;28;20087;-60
2021/04/25 01:09:15;;;;;;;8.57;4.85;;;;;;;7.65;53.79;96883.31;4996285;28;20045;-61
2021/04/25 01:11:41;;;;;;;12.85;5.05;;;;;;;7.86;53.56;96888.63;5000031;28;20077;-61
2021/04/25 01:14:06;;;;;;;9.57;5.03;;;;;;;7.87;53.16;96883.94;4996008;28;20052;-61
2021/04/25 01:16:32;;;;;;;9.98;4.32;;;;;;;7.89;52.70;96890.66;5001672;28;20042;-63
2021/04/25 01:18:57;;;;;;;10.43;5.40;;;;;;;7.77;50.37;96886.00;5000060;28;20083;-63
2021/04/25 01:21:23;;;;;;;8.38;4.47;;;;;;;7.94;51.75;96893.16;4996846;28;20504;-61
2021/04/25 01:23:49;;;;;;;11.45;4.82;;;;;;;7.72;52.43;96891.69;4996287;28;20042;-62
2021/04/25 01:26:15;;;;;;;16.80;5.85;;;;;;;7.82;51.31;96890.44;4989911;28;20049;-61
2021/04/25 01:28:41;;;;;;;11.52;6.15;;;;;;;7.03;55.87;96898.88;5000915;28;20044;-61
2021/04/25 01:31:07;;;;;;;8.30;4.70;;;;;;;7.32;55.69;96899.81;4999350;28;20042;-61
2021/04/25 01:33:33;;;;;;;10.48;4.72;;;;;;;7.53;54.74;96886.84;5001390;28;20550;-62
2021/04/25 01:35:59;;;;;;;13.63;5.15;;;;;;;7.74;54.99;96896.81;5009678;28;20049;-61
2021/04/25 01:38:25;;;;;;;15.52;4.68;;;;;;;7.95;54.58;96899.41;4997331;28;20038;-60
2021/04/25 01:40:50;;;;;;;10.15;5.25;;;;;;;8.06;54.64;96899.72;5004200;28;20335;-61
2021/04/25 01:43:16;;;;;;;8.90;4.43;;;;;;;7.88;55.65;96897.25;5003710;28;20045;-62
2021/04/25 01:45:41;;;;;;;8.93;5.07;;;;;;;7.71;55.72;96895.59;5006581;28;20042;-61
2021/04/25 01:48:08;;;;;;;9.32;4.78;;;;;;;7.59;55.67;96901.03;4997749;28;20465;-61
2021/04/25 01:50:35;;;;;;;11.75;5.50;;;;;;;7.68;56.17;96895.47;5003539;28;20389;-57
2021/04/25 01:53:02;;;;;;;15.80;5.00;;;;;;;7.63;55.67;96908.22;5003130;28;20504;-62
2021/04/25 01:55:29;;;;;;;12.65;5.07;;;;;;;7.67;54.98;96891.97;5000491;28;20053;-61
2021/04/25 01:57:55;;;;;;;13.85;5.63;;;;;;;7.58;54.58;96905.72;4994353;28;20049;-60
2021/04/25 02:00:28;;;;;;;10.18;5.03;;;;;;;7.61;54.21;96909.66;4999567;28;20046;-61
2021/04/25 02:02:54;;;;;;;10.93;4.75;;;;;;;7.35;54.44;96908.09;4999929;28;20385;-61
2021/04/25 02:05:21;;;;;;;13.15;5.22;;;;;;;7.31;54.72;96900.91;4987144;28;20452;-60
2021/04/25 02:07:47;;;;;;;11.32;4.85;;;;;;;7.34;54.15;96903.75;4982033;28;20474;-60
2021/04/25 02:10:13;;;;;;;10.45;4.97;;;;;;;7.39;55.24;96903.53;4996613;28;20069;-62
2021/04/25 02:12:38;;;;;;;11.75;4.70;;;;;;;7.26;54.72;96899.22;5007979;28;20452;-62
2021/04/25 02:15:06;;;;;;;12.48;4.63;;;;;;;7.28;54.41;96896.97;5003441;28;20134;-63
2021/04/25 02:17:32;;;;;;;10.45;5.10;;;;;;;7.50;53.61;96903.09;5002784;28;20084;-61
2021/04/25 02:19:58;;;;;;;14.40;5.50;;;;;;;7.17;55.45;96896.63;5016517;28;20065;-60
2021/04/25 02:22:23;;;;;;;12.00;5.65;;;;;;;7.38;56.01;96893.78;4991261;28;20054;-60
2021/04/25 02:24:49;;;;;;;12.15;4.75;;;;;;;7.36;54.38;96887.06;4988156;28;20523;-62
2021/04/25 02:27:14;;;;;;;11.95;5.15;;;;;;;7.22;55.56;96882.78;4996395;28;20069;-58
2021/04/25 02:29:40;;;;;;;11.48;5.10;;;;;;;6.88;56.11;96894.88;5002428;28;20074;-63
2021/04/25 02:32:05;;;;;;;10.50;4.95;;;;;;;6.92;55.75;96882.16;4997707;28;20042;-63
2021/04/25 02:34:32;;;;;;;11.88;5.40;;;;;;;6.88;56.60;96884.00;5018242;28;20044;-63
2021/04/25 02:36:57;;;;;;;12.05;5.43;;;;;;;7.10;56.24;96879.25;5002538;28;20050;-63
2021/04/25 02:39:22;;;;;;;10.57;5.68;;;;;;;7.02;56.57;96891.81;4999372;28;20583;-62
2021/04/25 02:41:48;;;;;;;12.05;5.32;;;;;;;6.96;56.22;96893.97;5001461;28;20046;-63
2021/04/25 02:44:14;;;;;;;14.25;5.97;;;;;;;7.10;55.45;96887.44;4996921;28;20038;-62
2021/04/25 02:46:39;;;;;;;14.90;6.10;;;;;;;7.20;54.73;96895.94;5000240;28;20053;-63
2021/04/25 02:49:05;;;;;;;12.88;5.22;;;;;;;7.41;52.80;96900.47;5002249;28;20041;-62
2021/04/25 02:51:30;;;;;;;10.57;5.32;;;;;;;7.45;53.48;96895.94;5017999;28;20052;-63
2021/04/25 02:53:56;;;;;;;12.98;5.38;;;;;;;7.48;51.27;96900.72;5002874;28;20481;-63
2021/04/25 02:56:22;;;;;;;11.27;5.30;;;;;;;7.62;52.11;96889.47;4996997;28;20049;-62
2021/04/25 02:58:47;;;;;;;11.07;5.22;;;;;;;7.56;53.56;96902.53;5000528;28;20120;-61
2021/04/25 03:01:13;;;;;;;15.32;5.95;;;;;;;7.77;52.27;96898.88;4994738;28;20045;-62
2021/04/25 03:03:38;;;;;;;9.90;4.85;;;;;;;7.66;51.92;96885.69;4996744;28;20385;-62
2021/04/25 03:06:04;;;;;;;12.60;4.88;;;;;;;7.51;53.60;96886.41;4996543;28;20046;-62
2021/04/25 03:08:29;;;;;;;17.80;5.70;;;;;;;7.69;53.11;96891.59;4979444;28;20065;-62
2021/04/25 03:10:54;;;;;;;13.45;5.35;;;;;;;7.74;52.26;96888.63;4982824;28;20064;-63
2021/04/25 03:13:20;;;;;;;14.63;5.57;;;;;;;7.69;51.20;96886.94;4977034;28;20042;-62
2021/04/25 03:15:45;;;;;;;11.13;5.13;;;;;;;7.76;51.65;96892.63;4996299;28;20056;-62
2021/04/25 03:18:11;;;;;;;11.43;4.53;;;;;;;7.64;51.15;96890.69;4994555;28;20088;-63
2021/04/25 03:20:37;;;;;;;19.23;5.75;;;;;;;7.65;51.50;96884.13;5001900;28;20059;-62
2021/04/25 03:23:02;;;;;;;11.13;5.10;;;;;;;7.66;53.45;96893.88;4999849;28;20041;-61
2021/04/25 03:25:28;;;;;;;13.05;5.25;;;;;;;7.39;53.81;96895.38;4999599;28;20496;-60
2021/04/25 03:27:53;;;;;;;10.40;5.15;;;;;;;7.35;53.47;96888.22;4999665;28;20088;-62
2021/04/25 03:30:20;;;;;;;13.80;4.90;;;;;;;7.34;54.21;96886.63;4995909;28;20128;-61
2021/04/25 03:32:45;;;;;;;11.55;5.28;;;;;;;7.28;53.77;96891.50;4988649;28;20646;-61
2021/04/25 03:35:13;;;;;;;15.90;5.20;;;;;;;7.17;53.57;96898.56;5004687;28;20042;-61
2021/04/25 03:37:39;;;;;;;15.38;5.20;;;;;;;7.03;54.83;96893.41;4995690;28;20092;-61
2021/04/25 03:40:07;;;;;;;12.30;5.25;;;;;;;6.93;54.29;96902.03;4993611;28;20057;-60
2021/04/25 03:42:33;;;;;;;12.88;5.50;;;;;;;6.83;54.21;96905.97;4998142;28;20045;-62
2021/04/25 03:44:59;;;;;;;12.15;5.28;;;;;;;6.70;56.43;96910.59;4993893;28;20381;-61
2021/04/25 03:47:24;;;;;;;13.82;5.20;;;;;;;6.58;58.43;96910.56;4996283;28;20038;-62
2021/04/25 03:49:50;;;;;;;12.73;5.05;;;;;;;6.71;56.03;96914.91;4986936;28;20038;-62
2021/04/25 03:52:16;;;;;;;10.73;4.82;;;;;;;6.67;56.67;96911.28;5008218;28;20049;-63
2021/04/25 03:54:41;;;;;;;12.25;5.00;;;;;;;6.55;56.28;96911.22;4994822;28;20417;-60
2021/04/25 03:57:07;;;;;;;11.43;5.30;;;;;;;6.39;57.18;96916.47;4995690;28;20077;-62
2021/04/25 03:59:33;;;;;;;10.25;5.22;;;;;;;6.23;58.98;96917.13;4998536;28;20140;-62
2021/04/25 04:01:59;;;;;;;12.07;5.85;;;;;;;6.19;58.14;96916.16;5001336;28;20110;-62
2021/04/25 04:04:25;;;;;;;11.20;5.07;;;;;;;6.23;57.70;96905.41;4994820;28;20141;-62
2021/04/25 04:06:50;;;;;;;13.30;5.97;;;;;;;5.73;59.21;96913.28;4994856;28;20046;-61
2021/04/25 04:09:17;;;;;;;9.02;4.90;;;;;;;5.72;58.12;96913.59;4997984;28;20451;-61
2021/04/25 04:11:46;;;;;;;17.52;5.50;;;;;;;5.86;58.33;96910.66;5004153;28;20462;-60
2021/04/25 04:14:12;;;;;;;13.05;4.95;;;;;;;5.86;58.01;96908.72;4989597;28;20074;-62
2021/04/25 04:16:38;;;;;;;12.18;5.68;;;;;;;5.89;57.32;96905.34;5002392;28;20397;-63
2021/04/25 04:19:03;;;;;;;10.27;5.20;;;;;;;5.98;58.39;96913.47;5002463;28;20046;-61
2021/04/25 04:21:28;;;;;;;12.00;5.03;;;;;;;5.89;59.54;96916.22;5000341;28;20045;-63
2021/04/25 04:23:54;;;;;;;9.40;5.22;;;;;;;5.82;60.07;96915.16;4994557;28;20034;-61
2021/04/25 04:26:20;;;;;;;12.35;4.97;;;;;;;5.88;59.76;96917.31;4997009;28;20172;-63
2021/04/25 04:28:45;;;;;;;14.52;5.72;;;;;;;6.08;59.59;96923.94;4992886;28;20769;-63
2021/04/25 04:31:11;;;;;;;12.20;5.35;;;;;;;5.97;59.03;96916.50;4997632;28;20056;-62
2021/04/25 04:33:36;;;;;;;8.68;5.20;;;;;;;5.71;60.64;96926.41;4992211;28;20054;-64
2021/04/25 04:36:06;;;;;;;10.75;5.85;;;;;;;5.66;60.51;96939.38;4995590;28;20038;-65
2021/04/25 04:38:32;;;;;;;13.50;6.05;;;;;;;5.74;61.10;96933.91;4997269;28;20049;-63
2021/04/25 04:40:57;;;;;;;10.90;5.13;;;;;;;5.91;60.53;96943.06;4993330;28;20049;-64
2021/04/25 04:43:23;;;;;;;16.20;5.28;;;;;;;6.02;59.81;96946.22;4995469;28;20984;-63
2021/04/25 04:45:50;;;;;;;12.40;4.88;;;;;;;6.13;59.49;96941.97;4995746;28;20041;-64
2021/04/25 04:48:16;;;;;;;11.13;5.32;;;;;;;6.10;58.86;96946.19;4997836;28;20057;-64
2021/04/25 04:50:41;;;;;;;10.43;5.20;;;;;;;6.29;59.39;96951.13;5000764;28;20783;-63
2021/04/25 04:53:07;;;;;;;9.55;5.07;;;;;;;6.57;57.90;96944.34;4989260;28;20053;-63
2021/04/25 04:55:32;;;;;;;11.73;4.93;;;;;;;6.79;56.95;96943.16;5001281;28;20048;-63
2021/04/25 04:57:57;;;;;;;12.90;5.55;;;;;;;7.00;55.84;96943.91;4998725;28;20132;-63
2021/04/25 05:00:23;;;;;;;10.80;4.93;;;;;;;7.22;55.39;96948.16;4993242;28;20114;-63
2021/04/25 05:02:48;;;;;;;12.38;5.88;;;;;;;7.17;54.76;96942.94;4997786;28;20210;-63
2021/04/25 05:05:14;;;;;;;12.75;5.25;;;;;;;7.14;55.38;96945.53;4994652;28;20053;-61
2021/04/25 05:07:39;;;;;;;11.55;4.90;;;;;;;7.32;56.89;96943.41;5001631;28;20050;-61
2021/04/25 05:10:06;;;;;;;13.18;5.45;;;;;;;7.61;56.45;96945.88;4992092;28;20038;-65
2021/04/25 05:12:32;;;;;;;9.23;4.78;;;;;;;7.65;55.78;96954.19;5001373;28;20050;-62
2021/04/25 05:14:57;;;;;;;10.15;5.75;;;;;;;7.71;56.84;96949.31;4996571;28;20104;-61
2021/04/25 05:17:22;;;;;;;9.98;4.93;;;;;;;8.07;55.50;96945.75;4997291;28;20509;-62
2021/04/25 05:19:48;;;;;;;10.77;5.38;;;;;;;8.56;52.64;96953.03;5000272;28;20474;-62
2021/04/25 05:22:13;;;;;;;8.93;4.85;;;;;;;8.80;52.11;96950.22;4994780;28;20042;-60
2021/04/25 05:24:38;;;;;;;9.35;4.57;;;;;;;8.30;53.15;96956.13;5001935;28;20077;-61
2021/04/25 05:27:04;;;;;;;17.35;5.72;;;;;;;8.74;53.38;96961.72;4995381;28;20045;-60
2021/04/25 05:29:30;;;;;;;11.23;4.53;;;;;;;9.41;52.71;96963.84;5002824;28;20042;-61
2021/04/25 05:31:55;;;;;;;12.23;5.50;;;;;;;9.73;50.39;96959.16;4993823;28;20076;-61
2021/04/25 05:34:20;;;;;;;9.23;4.78;;;;;;;10.13;48.88;96969.06;4995061;28;20050;-60
2021/04/25 05:36:46;;;;;;;10.05;4.78;;;;;;;9.99;49.41;96963.28;4997912;28;20049;-61
2021/04/25 05:39:12;;;;;;;10.75;4.53;;;;;;;10.47;49.07;96970.22;4996103;28;20037;-62
2021/04/25 05:41:37;;;;;;;10.80;4.30;;;;;;;10.14;49.02;96973.41;5005930;28;20080;-63
2021/04/25 05:44:04;;;;;;;10.02;4.70;;;;;;;10.93;47.59;96985.22;4998192;28;20070;-63
2021/04/25 05:46:30;;;;;;;9.63;4.75;;;;;;;11.30;47.55;96977.31;4990810;28;20038;-63
2021/04/25 05:48:55;;;;;;;11.32;5.47;;;;;;;12.05;44.19;96980.53;5001425;28;20378;-61
2021/04/25 05:51:21;;;;;;;14.18;5.03;;;;;;;13.07;40.35;96970.47;4996306;28;20037;-60
2021/04/25 05:53:46;;;;;;;11.73;5.25;;;;;;;13.17;40.44;96974.47;4992522;28;20042;-61
2021/04/25 05:56:12;;;;;;;12.55;5.35;;;;;;;13.60;38.66;96969.44;4997356;28;20061;-61
2021/04/25 05:58:37;;;;;;;8.23;4.53;;;;;;;12.37;44.02;96989.22;4998716;28;20050;-60
2021/04/25 06:01:03;;;;;;;9.75;4.25;;;;;;;10.85;47.40;96992.50;4991930;28;20038;-63
2021/04/25 06:03:29;;;;;;;14.35;4.82;;;;;;;11.18;47.24;96993.91;4991860;28;20129;-60
2021/04/25 06:05:54;;;;;;;10.57;4.65;;;;;;;12.70;43.10;96992.41;4992048;28;20044;-60
2021/04/25 06:08:20;;;;;;;8.23;4.60;;;;;;;12.74;42.52;97001.47;4997852;28;20038;-60
2021/04/25 06:10:46;;;;;;;13.02;5.38;;;;;;;14.06;39.62;96998.50;4992036;28;20096;-60
2021/04/25 06:13:11;;;;;;;10.30;4.95;;;;;;;14.49;36.66;96999.56;4984320;28;20102;-60
2021/04/25 06:15:37;;;;;;;13.00;4.55;;;;;;;17.05;32.27;97002.59;4998212;28;20041;-58
2021/04/25 06:18:03;;;;;;;11.43;4.80;;;;;;;19.04;28.77;96993.06;4989712;28;20042;-62
2021/04/25 06:20:30;;;;;;;13.40;4.75;;;;;;;19.39;27.64;96995.78;4984940;28;20050;-63
2021/04/25 06:22:56;;;;;;;12.60;5.18;;;;;;;19.88;27.31;97001.06;4990100;28;20077;-62
2021/04/25 06:25:21;;;;;;;11.80;4.90;;;;;;;20.64;25.95;96997.81;4996526;28;20595;-62
2021/04/25 06:27:47;;;;;;;10.57;4.88;;;;;;;20.71;25.77;96992.13;4995956;28;20497;-62
2021/04/25 06:30:14;;;;;;;11.98;4.70;;;;;;;20.51;26.06;96992.84;4983054;28;20046;-62
2021/04/25 06:32:40;;;;;;;10.25;4.80;;;;;;;21.39;24.55;96985.13;4991951;28;20507;-62
2021/04/25 06:35:07;;;;;;;8.88;4.60;;;;;;;21.24;24.51;96995.03;4989382;28;20509;-62
2021/04/25 06:37:32;;;;;;;9.07;4.85;;;;;;;21.23;24.64;97007.38;4991704;28;20138;-62
2021/04/25 06:39:58;;;;;;;10.35;4.95;;;;;;;20.30;25.66;96996.00;4988639;28;20046;-62
2021/04/25 06:42:23;;;;;;;10.43;4.78;;;;;;;20.92;24.93;96993.69;4991521;28;20510;-62
2021/04/25 06:44:49;;;;;;;9.25;4.60;;;;;;;20.52;24.95;96996.41;4990995;28;20038;-61
2021/04/25 06:47:14;;;;;;;11.88;4.60;;;;;;;20.52;24.43;96999.19;4991114;28;20054;-60
2021/04/25 06:49:42;;;;;;;9.68;5.03;;;;;;;19.79;25.52;96996.81;4993095;28;20061;-61
2021/04/25 06:52:09;;;;;;;19.52;5.65;;;;;;;18.69;27.86;96995.03;4990804;28;20038;-61
2021/04/25 06:54:35;;;;;;;12.45;5.68;;;;;;;15.46;33.74;97002.72;4994285;28;20104;-61
2021/04/25 06:57:01;;;;;;;14.95;7.68;;;;;;;12.49;41.08;97012.91;4999057;28;20033;-62
2021/04/25 06:59:26;;;;;;;9.98;5.88;;;;;;;11.60;42.76;97018.59;4996540;28;20034;-60
2021/04/25 07:01:52;;;;;;;15.73;7.15;;;;;;;11.70;43.24;97011.69;4995531;28;20042;-62
2021/04/25 07:04:17;;;;;;;13.30;5.45;;;;;;;11.91;43.16;97016.00;5002191;28;20531;-60
2021/04/25 07:06:42;;;;;;;12.68;7.03;;;;;;;13.14;41.45;97003.53;4995015;28;20409;-62
2021/04/25 07:09:09;;;;;;;12.88;5.75;;;;;;;13.61;39.06;97012.28;4987881;28;20038;-58
2021/04/25 07:11:34;;;;;;;24.17;7.75;;;;;;;13.93;38.31;97009.03;4992461;28;20076;-60
2021/04/25 07:14:00;;;;;;;11.07;5.65;;;;;;;15.37;35.81;97007.81;5001029;28;20445;-58
2021/04/25 07:16:25;;;;;;;12.43;5.70;;;;;;;13.90;38.60;96998.75;4988231;28;20048;-61
2021/04/25 07:18:50;;;;;;;12.80;6.13;;;;;;;14.61;37.75;96995.72;4993606;28;20401;-59
2021/04/25 07:21:16;;;;;;;14.27;5.85;;;;;;;13.81;39.73;96998.28;4997255;28;20056;-61
2021/04/25 07:23:41;;;;;;;10.27;5.80;;;;;;;12.73;42.35;97005.38;4991687;28;20516;-61
2021/04/25 07:26:08;;;;;;;13.07;5.53;;;;;;;12.94;40.57;96996.63;4996029;28;20069;-61
2021/04/25 07:28:36;;;;;;;12.63;5.75;;;;;;;13.28;40.66;96996.59;4998963;28;20046;-62
2021/04/25 07:31:02;;;;;;;14.75;6.05;;;;;;;12.98;41.81;96995.50;4993589;28;20701;-61
2021/04/25 07:33:30;;;;;;;15.38;6.13;;;;;;;12.48;42.18;97003.13;4992065;28;20054;-62
2021/04/25 07:35:56;;;;;;;12.63;5.82;;;;;;;12.31;43.07;96998.16;4989714;28;20129;-62
2021/04/25 07:38:22;;;;;;;10.95;5.45;;;;;;;12.86;42.47;96995.75;4994580;28;20072;-62
2021/04/25 07:40:47;;;;;;;12.73;6.10;;;;;;;14.56;38.89;96993.31;5001123;28;20042;-62
2021/04/25 07:43:13;;;;;;;13.18;6.25;;;;;;;16.46;34.98;97003.94;4987791;28;20393;-63
2021/04/25 07:45:39;;;;;;;13.77;6.65;;;;;;;14.88;37.64;97000.97;5004640;28;20353;-62
2021/04/25 07:48:04;;;;;;;12.73;6.32;;;;;;;14.07;40.18;97000.88;4998134;28;20038;-62
2021/04/25 07:50:30;;;;;;;17.13;7.07;;;;;;;13.29;40.97;97007.22;5002770;28;20073;-60
2021/04/25 07:52:55;;;;;;;15.65;6.20;;;;;;;12.92;42.65;97004.44;5000863;28;20050;-61
2021/04/25 07:55:21;;;;;;;12.07;6.57;;;;;;;14.42;38.89;97002.31;4995495;28;21777;-61
2021/04/25 07:57:46;;;;;;;19.30;6.10;;;;;;;14.19;39.11;97008.06;5000595;28;20046;-61
2021/04/25 08:00:13;;;;;;;15.40;6.03;;;;;;;14.07;39.14;97000.88;4994341;28;20100;-61
2021/04/25 08:02:39;;;;;;;14.43;6.63;;;;;;;14.22;40.32;96989.94;4990019;28;20165;-61
2021/04/25 08:05:06;;;;;;;15.15;6.45;;;;;;;14.00;40.64;96998.06;4991719;28;20041;-61
2021/04/25 08:07:32;;;;;;;14.30;6.38;;;;;;;15.00;37.94;96994.31;5001949;28;20385;-61
2021/04/25 08:09:57;;;;;;;14.55;6.90;;;;;;;16.76;34.41;96999.91;4994920;28;20074;-62
2021/04/25 08:12:23;;;;;;;14.88;7.65;;;;;;;15.57;36.22;96996.44;4987076;28;20923;-63
2021/04/25 08:14:48;;;;;;;14.07;6.22;;;;;;;15.70;36.74;96992.13;4997783;28;20042;-61
2021/04/25 08:17:14;;;;;;;15.57;6.90;;;;;;;14.84;38.29;96987.16;4989949;28;20038;-59
2021/04/25 08:19:39;;;;;;;12.65;5.95;;;;;;;16.59;36.25;96996.00;4990658;28;20045;-61
2021/04/25 08:22:06;;;;;;;12.00;6.00;;;;;;;16.01;35.46;96993.34;4988199;28;20048;-61
2021/04/25 08:24:32;;;;;;;12.30;6.78;;;;;;;15.54;36.70;96992.50;4991993;28;20514;-60
2021/04/25 08:26:58;;;;;;;15.00;8.07;;;;;;;15.19;37.49;96985.69;4995585;28;20070;-62
2021/04/25 08:29:24;;;;;;;21.75;10.05;;;;;;;14.98;38.74;96989.19;4983677;28;20061;-61
2021/04/25 08:31:49;;;;;;;23.92;11.10;;;;;;;15.43;37.71;96992.47;5002498;28;20037;-63
2021/04/25 08:34:15;;;;;;;19.00;7.72;;;;;;;14.74;37.79;96989.88;4993303;28;20038;-59
2021/04/25 08:36:40;;;;;;;12.90;7.88;;;;;;;14.25;39.31;96991.94;4992506;28;20046;-60
2021/04/25 08:39:06;;;;;;;13.07;6.97;;;;;;;15.20;38.52;96997.56;4989480;28;20201;-62
2021/04/25 08:41:31;;;;;;;12.88;7.43;;;;;;;16.50;36.79;97001.94;4991412;28;20080;-62
2021/04/25 08:44:00;;;;;;;11.48;5.97;;;;;;;17.03;35.71;96993.91;5002879;28;20056;-60
2021/04/25 08:46:27;;;;;;;14.13;6.43;;;;;;;18.39;33.69;96995.75;4996757;28;20180;-62
2021/04/25 08:48:54;;;;;;;10.23;6.20;;;;;;;20.03;30.22;96989.28;5005005;28;20042;-61
2021/04/25 08:51:20;;;;;;;12.20;6.50;;;;;;;19.35;31.05;96990.28;4997576;28;20064;-62
2021/04/25 08:53:47;;;;;;;10.27;5.78;;;;;;;19.65;30.93;97000.56;5004855;28;20509;-63
2021/04/25 08:56:13;;;;;;;12.02;6.57;;;;;;;21.28;28.06;96993.72;4997961;28;20057;-62
2021/04/25 08:58:39;;;;;;;15.23;6.20;;;;;;;21.59;27.49;96987.91;5002079;28;20076;-60
2021/04/25 09:01:05;;;;;;;11.90;6.97;;;;;;;22.13;26.13;96983.84;4992997;28;20030;-61
2021/04/25 09:03:31;;;;;;;10.98;6.38;;;;;;;20.96;27.95;96995.19;5004642;28;20057;-61
2021/04/25 09:05:59;;;;;;;13.68;6.13;;;;;;;22.83;26.53;96990.00;5005885;28;20656;-62
2021/04/25 09:08:57;;;;;;;12.35;6.03;;;;;;;22.48;26.80;96984.16;4990467;28;20046;-62
2021/04/25 09:11:34;;;;;;;10.40;5.95;;;;;;;21.15;28.32;96984.44;4995935;28;20881;-62
2021/04/25 09:14:20;;;;;;;15.95;7.00;;;;;;;21.33;27.53;96995.22;4996707;28;20064;-60
2021/04/25 09:17:06;;;;;;;13.43;6.30;;;;;;;21.46;28.07;96987.78;5004514;28;20088;-63
2021/04/25 09:19:55;;;;;;;13.45;7.38;;;;;;;21.05;27.80;96985.44;5004179;28;20042;-63
2021/04/25 09:22:41;;;;;;;12.68;7.20;;;;;;;19.85;30.19;96980.47;4997471;28;20044;-62
2021/04/25 09:25:09;;;;;;;15.32;7.97;;;;;;;16.28;35.37;96987.38;4992050;28;20046;-61
2021/04/25 09:27:35;;;;;;;17.25;7.82;;;;;;;15.39;38.32;96980.63;5002308;28;20389;-63
2021/04/25 09:30:02;;;;;;;15.50;7.70;;;;;;;17.50;35.79;96983.38;5001553;28;20038;-61
2021/04/25 09:32:30;;;;;;;12.43;6.80;;;;;;;19.73;31.97;96975.44;4999989;28;20104;-63
2021/04/25 09:35:19;;;;;;;19.30;7.28;;;;;;;17.46;32.31;96966.78;5002290;28;20050;-60
2021/04/25 09:37:47;;;;;;;11.38;6.55;;;;;;;17.80;32.89;96968.13;5003898;28;20048;-62
2021/04/25 09:40:24;;;;;;;13.93;7.45;;;;;;;16.10;33.91;96970.03;5005791;28;20069;-62
2021/04/25 09:43:03;;;;;;;15.52;7.38;;;;;;;15.91;35.07;96971.25;5003573;28;20042;-62
2021/04/25 09:45:39;;;;;;;13.40;7.95;;;;;;;15.62;35.33;96962.91;4992603;28;20085;-63
2021/04/25 09:48:31;;;;;;;14.85;6.93;;;;;;;16.10;34.56;96965.31;5002580;28;20065;-63
2021/04/25 09:51:21;;;;;;;13.52;6.47;;;;;;;17.63;32.38;96953.19;5007162;28;20038;-62
2021/04/25 09:53:49;;;;;;;16.92;7.47;;;;;;;16.04;32.15;96956.63;4993217;28;20049;-63
2021/04/25 09:56:19;;;;;;;18.30;7.30;;;;;;;15.98;34.06;96957.41;4998434;28;20124;-61
2021/04/25 09:58:57;;;;;;;18.42;7.30;;;;;;;16.25;35.16;96955.78;4999571;28;20539;-62
2021/04/25 10:01:29;;;;;;;15.45;6.07;;;;;;;16.96;33.33;96950.44;4997638;28;20057;-62
2021/04/25 10:03:56;;;;;;;12.75;6.80;;;;;;;16.67;32.46;96956.06;5000060;28;20042;-62
2021/04/25 10:06:22;;;;;;;12.95;6.57;;;;;;;16.47;33.51;96949.44;4996841;28;21833;-61
2021/04/25 10:08:51;;;;;;;13.80;6.68;;;;;;;17.05;34.41;96950.81;4994401;28;20369;-63
2021/04/25 10:11:19;;;;;;;17.67;7.43;;;;;;;16.59;34.82;96949.78;4984003;28;20502;-61
2021/04/25 10:13:46;;;;;;;15.93;7.88;;;;;;;15.69;36.77;96951.88;4997703;28;20759;-62
2021/04/25 10:16:12;;;;;;;17.35;7.68;;;;;;;16.25;35.79;96958.56;4994343;28;20069;-62
2021/04/25 10:18:37;;;;;;;20.55;7.40;;;;;;;16.58;34.67;96952.94;4995343;28;20378;-62
2021/04/25 10:21:03;;;;;;;12.48;6.72;;;;;;;16.72;33.62;96955.66;5000857;28;20152;-63
2021/04/25 10:23:29;;;;;;;13.18;6.45;;;;;;;17.41;31.52;96947.03;4998644;28;20113;-63
2021/04/25 10:25:54;;;;;;;14.07;7.45;;;;;;;18.16;30.62;96940.91;4977924;28;604672;-62
2021/04/25 10:28:28;;;;;;;12.95;6.55;;;;;;;17.11;32.57;96951.97;4997477;28;20046;-61
2021/04/25 10:31:06;;;;;;;13.93;7.10;;;;;;;17.37;30.70;96939.53;4995695;28;20034;-61
2021/04/25 10:34:03;;;;;;;12.55;6.80;;;;;;;17.77;30.44;96945.59;4999258;28;20106;-62
2021/04/25 10:36:44;;;;;;;17.02;8.45;;;;;;;16.58;33.52;96951.00;4992602;28;20100;-61
2021/04/25 10:39:50;;;;;;;15.75;7.97;;;;;;;16.62;31.66;96940.69;4996130;28;20076;-63
2021/04/25 10:42:20;;;;;;;17.80;7.38;;;;;;;18.57;28.46;96937.31;4985552;28;20064;-63
2021/04/25 10:45:16;;;;;;;14.40;8.07;;;;;;;17.41;31.04;96933.97;5002360;28;20049;-61
2021/04/25 10:47:44;;;;;;;16.10;7.32;;;;;;;17.04;33.19;96940.94;5002009;28;20037;-63
2021/04/25 10:50:09;;;;;;;14.70;6.97;;;;;;;17.35;30.75;96941.16;4996101;28;20049;-62
2021/04/25 10:52:36;;;;;;;13.50;6.43;;;;;;;17.65;30.50;96937.78;5001604;28;20054;-62
2021/04/25 10:55:10;;;;;;;11.95;6.47;;;;;;;18.26;30.03;96928.16;5001461;28;20324;-64
2021/04/25 10:57:50;;;;;;;9.40;5.43;;;;;;;18.72;29.39;96916.50;5002284;28;20045;-61
2021/04/25 11:00:38;;;;;;;13.60;6.57;;;;;;;18.60;29.81;96919.84;5000332;28;20038;-62
2021/04/25 11:03:11;;;;;;;12.60;6.25;;;;;;;17.84;30.18;96910.69;4994799;28;20042;-61
2021/04/25 11:05:37;;;;;;;15.77;7.13;;;;;;;16.44;33.33;96920.63;5003173;28;20531;-60
2021/04/25 11:08:03;;;;;;;15.02;6.53;;;;;;;16.68;33.16;96913.41;5000367;28;20034;-63
2021/04/25 11:10:48;;;;;;;13.93;7.22;;;;;;;16.58;33.42;96911.47;5001268;28;20038;-60
2021/04/25 11:13:33;;;;;;;16.73;7.40;;;;;;;16.12;35.19;96921.50;4991128;28;20103;-62
2021/04/25 11:16:01;;;;;;;10.95;6.07;;;;;;;16.59;33.84;96921.34;4993471;28;20033;-63
2021/04/25 11:18:53;;;;;;;11.02;6.07;;;;;;;16.91;33.69;96903.88;4996643;28;20466;-61
2021/04/25 11:21:37;;;;;;;12.65;6.22;;;;;;;17.24;32.65;96912.75;4996545;28;20034;-60
2021/04/25 11:24:06;;;;;;;12.73;6.65;;;;;;;17.01;33.39;96905.75;4992235;28;20049;-63
2021/04/25 11:26:37;;;;;;;14.25;6.85;;;;;;;15.86;33.66;96909.69;4999963;28;20057;-60
2021/04/25 11:29:11;;;;;;;12.10;6.50;;;;;;;16.51;34.00;96905.97;4993214;28;20116;-62
2021/04/25 11:31:42;;;;;;;10.93;5.95;;;;;;;17.15;32.13;96894.59;5001222;28;20133;-62